sensor_id;sensor_type;location;lat;lon;timestamp;pressure;altitude;pressure_sealevel;temperature;humidity
25855;BME280;13680;49.936;11.344;2023-05-24T00:01:04;97022.03;;;12.76;58.23
25855;BME280;13680;49.936;11.344;2023-05-24T00:03:31;97020.78;;;12.82;57.85
25855;BME280;13680;49.936;11.344;2023-05-24T00:05:59;97008.78;;;12.66;58.13
25855;BME280;13680;49.936;11.344;2023-05-24T00:08:25;97006.97;;;12.61;58.71
25855;BME280;13680;49.936;11.344;2023-05-24T00:10:50;97010.97;;;12.64;57.87
25855;BME280;13680;49.936;11.344;2023-05-24T00:13:16;97014.66;;;12.68;57.66
25855;BME280;13680;49.936;11.344;2023-05-24T00:15:41;97018.22;;;12.77;57.88
25855;BME280;13680;49.936;11.344;2023-05-24T00:18:07;97014.00;;;12.93;57.07
25855;BME280;13680;49.936;11.344;2023-05-24T00:20:32;97010.97;;;12.64;58.06
25855;BME280;13680;49.936;11.344;2023-05-24T00:22:57;97010.47;;;12.84;57.95
25855;BME280;13680;49.936;11.344;2023-05-24T00:25:23;97013.19;;;12.84;57.04
25855;BME280;13680;49.936;11.344;2023-05-24T00:27:48;97009.91;;;12.28;58.56
25855;BME280;13680;49.936;11.344;2023-05-24T00:30:13;97012.44;;;12.70;57.70
25855;BME280;13680;49.936;11.344;2023-05-24T00:32:39;97009.38;;;12.63;58.31
25855;BME280;13680;49.936;11.344;2023-05-24T00:35:04;97012.31;;;12.52;58.27
25855;BME280;13680;49.936;11.344;2023-05-24T00:37:30;97003.13;;;12.53;58.43
25855;BME280;13680;49.936;11.344;2023-05-24T00:39:55;97005.59;;;12.27;58.80
25855;BME280;13680;49.936;11.344;2023-05-24T00:42:20;97001.72;;;12.56;58.03
25855;BME280;13680;49.936;11.344;2023-05-24T00:44:46;97001.75;;;12.42;58.45
25855;BME280;13680;49.936;11.344;2023-05-24T00:47:11;97004.50;;;12.28;58.77
25855;BME280;13680;49.936;11.344;2023-05-24T00:49:37;97005.19;;;12.34;58.43
25855;BME280;13680;49.936;11.344;2023-05-24T00:52:03;97005.31;;;12.51;58.26
25855;BME280;13680;49.936;11.344;2023-05-24T00:54:29;97011.09;;;12.58;58.07
25855;BME280;13680;49.936;11.344;2023-05-24T00:56:54;97009.50;;;12.57;57.73
25855;BME280;13680;49.936;11.344;2023-05-24T00:59:24;97003.25;;;12.48;58.09
25855;BME280;13680;49.936;11.344;2023-05-24T01:01:50;96999.19;;;12.37;58.42
25855;BME280;13680;49.936;11.344;2023-05-24T01:04:16;96995.34;;;12.52;58.03
25855;BME280;13680;49.936;11.344;2023-05-24T01:12:35;96998.56;;;12.40;58.29
25855;BME280;13680;49.936;11.344;2023-05-24T01:18:15;96977.19;;;12.43;58.17
25855;BME280;13680;49.936;11.344;2023-05-24T01:20:41;96975.47;;;12.48;58.06
25855;BME280;13680;49.936;11.344;2023-05-24T01:25:59;96975.72;;;12.60;57.45
25855;BME280;13680;49.936;11.344;2023-05-24T01:28:28;96973.06;;;12.69;57.47
25855;BME280;13680;49.936;11.344;2023-05-24T01:30:54;96973.88;;;12.69;57.56
25855;BME280;13680;49.936;11.344;2023-05-24T01:33:20;96977.00;;;12.63;57.27
25855;BME280;13680;49.936;11.344;2023-05-24T01:35:45;96972.03;;;12.56;57.88
25855;BME280;13680;49.936;11.344;2023-05-24T01:38:10;96974.75;;;12.56;57.15
25855;BME280;13680;49.936;11.344;2023-05-24T01:40:37;96975.28;;;12.21;57.69
25855;BME280;13680;49.936;11.344;2023-05-24T01:43:13;96981.25;;;12.18;57.68
25855;BME280;13680;49.936;11.344;2023-05-24T01:45:48;96980.50;;;12.40;57.84
25855;BME280;13680;49.936;11.344;2023-05-24T01:50:59;96988.13;;;12.24;57.93
25855;BME280;13680;49.936;11.344;2023-05-24T01:53:31;96977.41;;;12.33;58.22
25855;BME280;13680;49.936;11.344;2023-05-24T01:56:00;96979.81;;;12.35;57.14
25855;BME280;13680;49.936;11.344;2023-05-24T01:58:27;96986.19;;;12.39;56.66
25855;BME280;13680;49.936;11.344;2023-05-24T02:00:54;96987.78;;;12.40;56.98
25855;BME280;13680;49.936;11.344;2023-05-24T02:03:19;96977.34;;;12.24;56.82
25855;BME280;13680;49.936;11.344;2023-05-24T02:05:45;96990.50;;;11.89;58.43
25855;BME280;13680;49.936;11.344;2023-05-24T02:08:11;96980.09;;;11.97;58.09
25855;BME280;13680;49.936;11.344;2023-05-24T02:10:38;96988.34;;;12.14;57.67
25855;BME280;13680;49.936;11.344;2023-05-24T02:13:04;96989.09;;;11.78;58.72
25855;BME280;13680;49.936;11.344;2023-05-24T02:15:30;96994.38;;;11.83;58.11
25855;BME280;13680;49.936;11.344;2023-05-24T02:17:55;97000.47;;;11.75;58.47
25855;BME280;13680;49.936;11.344;2023-05-24T02:20:21;96996.66;;;11.90;58.36
25855;BME280;13680;49.936;11.344;2023-05-24T02:22:49;96997.28;;;11.59;58.83
25855;BME280;13680;49.936;11.344;2023-05-24T02:25:15;96999.69;;;11.60;58.30
25855;BME280;13680;49.936;11.344;2023-05-24T02:27:40;96991.69;;;11.55;58.64
25855;BME280;13680;49.936;11.344;2023-05-24T02:30:07;96996.88;;;11.79;57.76
25855;BME280;13680;49.936;11.344;2023-05-24T02:32:32;96996.47;;;11.72;57.46
25855;BME280;13680;49.936;11.344;2023-05-24T02:34:59;96985.31;;;11.23;59.54
25855;BME280;13680;49.936;11.344;2023-05-24T02:37:26;97002.47;;;11.55;58.29
25855;BME280;13680;49.936;11.344;2023-05-24T02:39:52;96987.31;;;11.59;57.89
25855;BME280;13680;49.936;11.344;2023-05-24T02:42:17;96990.09;;;11.54;58.08
25855;BME280;13680;49.936;11.344;2023-05-24T02:44:42;96992.91;;;11.63;58.00
25855;BME280;13680;49.936;11.344;2023-05-24T02:47:12;96994.50;;;11.64;57.56
25855;BME280;13680;49.936;11.344;2023-05-24T02:49:37;96992.00;;;11.54;58.48
25855;BME280;13680;49.936;11.344;2023-05-24T02:52:03;96999.97;;;11.45;58.63
25855;BME280;13680;49.936;11.344;2023-05-24T02:54:29;96993.91;;;11.53;58.23
25855;BME280;13680;49.936;11.344;2023-05-24T02:56:54;96995.78;;;11.39;58.21
25855;BME280;13680;49.936;11.344;2023-05-24T02:59:21;97000.66;;;11.65;57.92
25855;BME280;13680;49.936;11.344;2023-05-24T03:01:46;97003.19;;;11.61;57.87
25855;BME280;13680;49.936;11.344;2023-05-24T03:04:11;97001.03;;;11.16;59.06
25855;BME280;13680;49.936;11.344;2023-05-24T03:06:37;97001.16;;;11.39;59.00
25855;BME280;13680;49.936;11.344;2023-05-24T03:09:02;96999.16;;;11.17;59.13
25855;BME280;13680;49.936;11.344;2023-05-24T03:11:27;97000.47;;;11.19;59.11
25855;BME280;13680;49.936;11.344;2023-05-24T03:13:53;97005.06;;;11.46;58.57
25855;BME280;13680;49.936;11.344;2023-05-24T03:16:18;97003.66;;;11.49;58.19
25855;BME280;13680;49.936;11.344;2023-05-24T03:18:45;97006.56;;;11.39;58.70
25855;BME280;13680;49.936;11.344;2023-05-24T03:21:10;97007.66;;;11.52;58.85
25855;BME280;13680;49.936;11.344;2023-05-24T03:23:35;97007.38;;;11.53;58.17
25855;BME280;13680;49.936;11.344;2023-05-24T03:26:01;97009.25;;;11.39;58.39
25855;BME280;13680;49.936;11.344;2023-05-24T03:28:26;97008.16;;;11.40;58.45
25855;BME280;13680;49.936;11.344;2023-05-24T03:30:51;97009.66;;;11.60;57.61
25855;BME280;13680;49.936;11.344;2023-05-24T03:33:17;97011.06;;;11.57;58.01
25855;BME280;13680;49.936;11.344;2023-05-24T03:35:42;97010.06;;;11.53;58.55
25855;BME280;13680;49.936;11.344;2023-05-24T03:38:07;97000.69;;;11.37;58.81
25855;BME280;13680;49.936;11.344;2023-05-24T03:40:33;97005.06;;;11.33;58.96
25855;BME280;13680;49.936;11.344;2023-05-24T03:42:58;97005.69;;;11.43;58.15
25855;BME280;13680;49.936;11.344;2023-05-24T03:45:24;97004.69;;;11.53;58.06
25855;BME280;13680;49.936;11.344;2023-05-24T03:47:49;97008.75;;;11.51;57.88
25855;BME280;13680;49.936;11.344;2023-05-24T03:50:15;97007.56;;;11.43;58.51
25855;BME280;13680;49.936;11.344;2023-05-24T03:52:41;97000.78;;;11.59;58.24
25855;BME280;13680;49.936;11.344;2023-05-24T03:55:07;97002.88;;;11.62;57.79
25855;BME280;13680;49.936;11.344;2023-05-24T03:57:32;97001.91;;;11.58;57.92
25855;BME280;13680;49.936;11.344;2023-05-24T03:59:57;97000.09;;;11.68;58.35
25855;BME280;13680;49.936;11.344;2023-05-24T04:02:24;97008.47;;;11.66;57.55
25855;BME280;13680;49.936;11.344;2023-05-24T04:04:50;97005.69;;;11.71;57.58
25855;BME280;13680;49.936;11.344;2023-05-24T04:07:15;97011.44;;;11.51;57.62
25855;BME280;13680;49.936;11.344;2023-05-24T04:09:41;97004.28;;;11.60;58.06
25855;BME280;13680;49.936;11.344;2023-05-24T04:12:07;97009.41;;;11.14;58.30
25855;BME280;13680;49.936;11.344;2023-05-24T04:14:32;97000.28;;;11.29;58.59
25855;BME280;13680;49.936;11.344;2023-05-24T04:16:59;97004.34;;;11.13;59.13
25855;BME280;13680;49.936;11.344;2023-05-24T04:19:28;97007.25;;;11.30;59.32
25855;BME280;13680;49.936;11.344;2023-05-24T04:21:53;97000.41;;;11.52;58.28
25855;BME280;13680;49.936;11.344;2023-05-24T04:24:18;96996.41;;;11.50;58.05
25855;BME280;13680;49.936;11.344;2023-05-24T04:26:44;97005.69;;;11.57;57.96
25855;BME280;13680;49.936;11.344;2023-05-24T04:29:09;97007.28;;;11.58;57.65
25855;BME280;13680;49.936;11.344;2023-05-24T04:31:35;97008.66;;;11.70;57.91
25855;BME280;13680;49.936;11.344;2023-05-24T04:34:00;97009.75;;;11.83;57.08
25855;BME280;13680;49.936;11.344;2023-05-24T04:36:26;97010.56;;;11.83;56.60
25855;BME280;13680;49.936;11.344;2023-05-24T04:38:52;97006.56;;;11.81;57.88
25855;BME280;13680;49.936;11.344;2023-05-24T04:41:20;97017.94;;;11.77;58.06
25855;BME280;13680;49.936;11.344;2023-05-24T04:43:46;97020.13;;;11.89;57.16
25855;BME280;13680;49.936;11.344;2023-05-24T04:46:11;97011.44;;;11.92;57.35
25855;BME280;13680;49.936;11.344;2023-05-24T04:48:37;97015.41;;;11.95;57.44
25855;BME280;13680;49.936;11.344;2023-05-24T04:51:02;97017.22;;;11.86;56.91
25855;BME280;13680;49.936;11.344;2023-05-24T04:53:28;97021.03;;;11.57;56.85
25855;BME280;13680;49.936;11.344;2023-05-24T04:55:54;97022.00;;;11.75;56.69
25855;BME280;13680;49.936;11.344;2023-05-24T04:58:19;97016.13;;;11.87;57.05
25855;BME280;13680;49.936;11.344;2023-05-24T05:00:45;97020.91;;;11.76;56.67
25855;BME280;13680;49.936;11.344;2023-05-24T05:03:10;97030.03;;;11.66;57.02
25855;BME280;13680;49.936;11.344;2023-05-24T05:05:36;97032.34;;;11.12;57.71
25855;BME280;13680;49.936;11.344;2023-05-24T05:08:01;97023.50;;;11.25;58.12
25855;BME280;13680;49.936;11.344;2023-05-24T05:10:28;97026.59;;;11.33;57.70
25855;BME280;13680;49.936;11.344;2023-05-24T05:12:53;97024.91;;;11.51;57.53
25855;BME280;13680;49.936;11.344;2023-05-24T05:15:21;97033.41;;;11.58;57.03
25855;BME280;13680;49.936;11.344;2023-05-24T05:17:46;97033.75;;;11.23;57.64
25855;BME280;13680;49.936;11.344;2023-05-24T05:20:11;97039.78;;;11.34;57.73
25855;BME280;13680;49.936;11.344;2023-05-24T05:22:37;97035.50;;;11.61;56.99
25855;BME280;13680;49.936;11.344;2023-05-24T05:25:02;97040.88;;;11.47;57.53
25855;BME280;13680;49.936;11.344;2023-05-24T05:27:28;97046.66;;;11.54;57.43
25855;BME280;13680;49.936;11.344;2023-05-24T05:29:53;97046.75;;;11.49;57.35
25855;BME280;13680;49.936;11.344;2023-05-24T05:32:18;97048.38;;;11.64;56.82
25855;BME280;13680;49.936;11.344;2023-05-24T05:34:44;97047.66;;;11.72;56.46
25855;BME280;13680;49.936;11.344;2023-05-24T05:37:09;97051.13;;;11.31;57.46
25855;BME280;13680;49.936;11.344;2023-05-24T05:39:35;97056.50;;;11.31;57.90
25855;BME280;13680;49.936;11.344;2023-05-24T05:42:00;97057.16;;;11.56;57.82
25855;BME280;13680;49.936;11.344;2023-05-24T05:44:26;97054.44;;;11.70;57.65
25855;BME280;13680;49.936;11.344;2023-05-24T05:46:51;97060.03;;;11.32;58.15
25855;BME280;13680;49.936;11.344;2023-05-24T05:49:17;97056.56;;;11.12;58.65
25855;BME280;13680;49.936;11.344;2023-05-24T05:51:43;97059.94;;;11.37;58.74
25855;BME280;13680;49.936;11.344;2023-05-24T05:54:09;97058.09;;;11.18;59.04
25855;BME280;13680;49.936;11.344;2023-05-24T05:56:39;97067.47;;;11.21;58.92
25855;BME280;13680;49.936;11.344;2023-05-24T05:59:09;97071.31;;;11.14;59.41
25855;BME280;13680;49.936;11.344;2023-05-24T06:01:35;97070.22;;;11.49;58.63
25855;BME280;13680;49.936;11.344;2023-05-24T06:04:00;97075.19;;;11.55;58.27
25855;BME280;13680;49.936;11.344;2023-05-24T06:06:25;97076.44;;;11.30;59.55
25855;BME280;13680;49.936;11.344;2023-05-24T06:08:50;97080.41;;;11.79;57.67
25855;BME280;13680;49.936;11.344;2023-05-24T06:11:16;97073.22;;;12.03;57.62
25855;BME280;13680;49.936;11.344;2023-05-24T06:13:41;97071.81;;;12.33;57.16
25855;BME280;13680;49.936;11.344;2023-05-24T06:16:06;97070.94;;;12.10;57.02
25855;BME280;13680;49.936;11.344;2023-05-24T06:18:33;97071.19;;;12.50;55.99
25855;BME280;13680;49.936;11.344;2023-05-24T06:20:58;97071.06;;;12.55;56.06
25855;BME280;13680;49.936;11.344;2023-05-24T06:23:24;97074.25;;;12.07;56.59
25855;BME280;13680;49.936;11.344;2023-05-24T06:25:49;97072.53;;;12.25;56.90
25855;BME280;13680;49.936;11.344;2023-05-24T06:28:14;97074.50;;;11.91;57.71
25855;BME280;13680;49.936;11.344;2023-05-24T06:30:40;97080.53;;;12.16;57.80
25855;BME280;13680;49.936;11.344;2023-05-24T06:33:06;97080.19;;;11.90;58.62
25855;BME280;13680;49.936;11.344;2023-05-24T06:35:31;97088.75;;;11.50;59.36
25855;BME280;13680;49.936;11.344;2023-05-24T06:37:56;97090.28;;;11.84;58.65
25855;BME280;13680;49.936;11.344;2023-05-24T06:40:22;97092.41;;;12.01;58.33
25855;BME280;13680;49.936;11.344;2023-05-24T06:42:47;97086.41;;;11.76;58.85
25855;BME280;13680;49.936;11.344;2023-05-24T06:45:12;97091.19;;;11.93;58.09
25855;BME280;13680;49.936;11.344;2023-05-24T06:47:39;97091.00;;;12.04;58.46
25855;BME280;13680;49.936;11.344;2023-05-24T06:50:05;97095.09;;;12.15;57.46
25855;BME280;13680;49.936;11.344;2023-05-24T06:52:30;97085.84;;;12.58;57.67
25855;BME280;13680;49.936;11.344;2023-05-24T06:54:55;97100.41;;;12.06;57.51
25855;BME280;13680;49.936;11.344;2023-05-24T06:57:21;97094.06;;;12.39;57.30
25855;BME280;13680;49.936;11.344;2023-05-24T06:59:46;97095.78;;;12.71;57.28
25855;BME280;13680;49.936;11.344;2023-05-24T07:02:12;97096.47;;;12.40;56.64
25855;BME280;13680;49.936;11.344;2023-05-24T07:04:37;97096.97;;;12.79;56.02
25855;BME280;13680;49.936;11.344;2023-05-24T07:07:05;97099.72;;;12.88;55.23
25855;BME280;13680;49.936;11.344;2023-05-24T07:09:31;97093.00;;;13.22;54.37
25855;BME280;13680;49.936;11.344;2023-05-24T07:11:56;97086.50;;;13.23;53.53
25855;BME280;13680;49.936;11.344;2023-05-24T07:14:22;97091.56;;;13.24;54.36
25855;BME280;13680;49.936;11.344;2023-05-24T07:16:48;97101.09;;;12.63;55.65
25855;BME280;13680;49.936;11.344;2023-05-24T07:19:14;97104.03;;;12.52;55.14
25855;BME280;13680;49.936;11.344;2023-05-24T07:21:39;97105.69;;;12.76;55.57
25855;BME280;13680;49.936;11.344;2023-05-24T07:24:05;97102.69;;;13.23;54.24
25855;BME280;13680;49.936;11.344;2023-05-24T07:26:30;97117.22;;;13.13;53.72
25855;BME280;13680;49.936;11.344;2023-05-24T07:28:55;97113.28;;;12.97;52.70
25855;BME280;13680;49.936;11.344;2023-05-24T07:31:21;97116.31;;;12.95;53.21
25855;BME280;13680;49.936;11.344;2023-05-24T07:33:47;97114.41;;;12.96;53.00
25855;BME280;13680;49.936;11.344;2023-05-24T07:36:12;97114.13;;;12.47;53.36
25855;BME280;13680;49.936;11.344;2023-05-24T07:38:37;97113.41;;;12.91;54.28
25855;BME280;13680;49.936;11.344;2023-05-24T07:41:05;97105.00;;;13.16;52.65
25855;BME280;13680;49.936;11.344;2023-05-24T07:43:31;97109.72;;;13.33;52.50
25855;BME280;13680;49.936;11.344;2023-05-24T07:45:56;97102.13;;;13.57;51.45
25855;BME280;13680;49.936;11.344;2023-05-24T07:48:22;97106.38;;;13.27;51.75
25855;BME280;13680;49.936;11.344;2023-05-24T07:50:48;97101.00;;;13.58;51.12
25855;BME280;13680;49.936;11.344;2023-05-24T07:53:14;97104.56;;;13.22;53.29
25855;BME280;13680;49.936;11.344;2023-05-24T07:55:40;97113.44;;;13.37;52.09
25855;BME280;13680;49.936;11.344;2023-05-24T07:58:06;97111.22;;;13.39;51.87
25855;BME280;13680;49.936;11.344;2023-05-24T08:00:32;97107.53;;;13.12;51.61
25855;BME280;13680;49.936;11.344;2023-05-24T08:02:58;97107.84;;;13.10;53.18
25855;BME280;13680;49.936;11.344;2023-05-24T08:05:24;97104.75;;;13.26;52.65
25855;BME280;13680;49.936;11.344;2023-05-24T08:07:50;97105.72;;;13.30;52.66
25855;BME280;13680;49.936;11.344;2023-05-24T08:10:15;97105.91;;;12.88;53.38
25855;BME280;13680;49.936;11.344;2023-05-24T08:12:41;97114.13;;;12.83;53.03
25855;BME280;13680;49.936;11.344;2023-05-24T08:15:07;97114.47;;;13.04;52.32
25855;BME280;13680;49.936;11.344;2023-05-24T08:17:32;97115.38;;;12.77;52.56
25855;BME280;13680;49.936;11.344;2023-05-24T08:19:58;97122.22;;;12.47;53.60
25855;BME280;13680;49.936;11.344;2023-05-24T08:22:23;97113.72;;;12.90;53.71
25855;BME280;13680;49.936;11.344;2023-05-24T08:24:49;97110.81;;;13.32;53.02
25855;BME280;13680;49.936;11.344;2023-05-24T08:27:14;97112.31;;;13.38;52.50
25855;BME280;13680;49.936;11.344;2023-05-24T08:29:40;97118.19;;;13.17;52.21
25855;BME280;13680;49.936;11.344;2023-05-24T08:32:05;97115.88;;;13.02;52.36
25855;BME280;13680;49.936;11.344;2023-05-24T08:34:36;97114.91;;;13.43;51.62
25855;BME280;13680;49.936;11.344;2023-05-24T08:37:03;97115.72;;;13.44;51.31
25855;BME280;13680;49.936;11.344;2023-05-24T08:39:29;97111.00;;;13.58;51.21
25855;BME280;13680;49.936;11.344;2023-05-24T08:41:54;97123.53;;;13.77;51.39
25855;BME280;13680;49.936;11.344;2023-05-24T08:44:20;97121.28;;;13.24;51.67
25855;BME280;13680;49.936;11.344;2023-05-24T08:46:47;97126.53;;;13.44;50.96
25855;BME280;13680;49.936;11.344;2023-05-24T08:49:13;97128.75;;;13.27;51.29
25855;BME280;13680;49.936;11.344;2023-05-24T08:51:39;97123.47;;;13.22;51.39
25855;BME280;13680;49.936;11.344;2023-05-24T08:54:05;97119.78;;;13.64;50.33
25855;BME280;13680;49.936;11.344;2023-05-24T08:56:32;97128.09;;;13.22;51.53
25855;BME280;13680;49.936;11.344;2023-05-24T08:58:57;97126.66;;;14.10;48.87
25855;BME280;13680;49.936;11.344;2023-05-24T09:01:23;97133.31;;;14.04;49.42
25855;BME280;13680;49.936;11.344;2023-05-24T09:03:49;97130.41;;;13.91;48.89
25855;BME280;13680;49.936;11.344;2023-05-24T09:06:16;97131.66;;;14.34;48.35
25855;BME280;13680;49.936;11.344;2023-05-24T09:08:42;97134.81;;;14.19;48.33
25855;BME280;13680;49.936;11.344;2023-05-24T09:11:08;97134.16;;;14.22;47.49
25855;BME280;13680;49.936;11.344;2023-05-24T09:13:34;97138.38;;;14.46;48.00
25855;BME280;13680;49.936;11.344;2023-05-24T09:16:00;97135.72;;;14.05;48.41
25855;BME280;13680;49.936;11.344;2023-05-24T09:18:26;97130.72;;;14.39;47.39
25855;BME280;13680;49.936;11.344;2023-05-24T09:20:52;97139.09;;;14.11;49.11
25855;BME280;13680;49.936;11.344;2023-05-24T09:23:18;97132.84;;;14.60;48.66
25855;BME280;13680;49.936;11.344;2023-05-24T09:25:44;97130.47;;;14.67;47.30
25855;BME280;13680;49.936;11.344;2023-05-24T09:28:16;97133.38;;;14.97;47.41
25855;BME280;13680;49.936;11.344;2023-05-24T09:30:42;97137.81;;;15.10;45.64
25855;BME280;13680;49.936;11.344;2023-05-24T09:33:08;97126.78;;;15.50;45.48
25855;BME280;13680;49.936;11.344;2023-05-24T09:35:33;97125.16;;;16.14;42.58
25855;BME280;13680;49.936;11.344;2023-05-24T09:38:01;97120.72;;;16.01;44.22
25855;BME280;13680;49.936;11.344;2023-05-24T09:40:28;97125.00;;;16.11;43.74
25855;BME280;13680;49.936;11.344;2023-05-24T09:43:07;97125.16;;;16.44;42.84
25855;BME280;13680;49.936;11.344;2023-05-24T09:45:53;97123.16;;;16.32;42.88
25855;BME280;13680;49.936;11.344;2023-05-24T09:48:20;97122.91;;;17.31;41.33
25855;BME280;13680;49.936;11.344;2023-05-24T09:51:02;97113.03;;;17.60;40.31
25855;BME280;13680;49.936;11.344;2023-05-24T09:53:31;97109.41;;;17.56;39.76
25855;BME280;13680;49.936;11.344;2023-05-24T09:55:58;97111.00;;;17.57;39.48
25855;BME280;13680;49.936;11.344;2023-05-24T09:58:29;97111.25;;;17.76;39.09
25855;BME280;13680;49.936;11.344;2023-05-24T10:01:03;97111.72;;;17.78;38.29
25855;BME280;13680;49.936;11.344;2023-05-24T10:03:30;97107.53;;;17.81;37.74
25855;BME280;13680;49.936;11.344;2023-05-24T10:05:56;97105.41;;;18.36;36.66
25855;BME280;13680;49.936;11.344;2023-05-24T10:08:22;97106.56;;;18.10;37.79
25855;BME280;13680;49.936;11.344;2023-05-24T10:10:48;97095.97;;;18.58;36.95
25855;BME280;13680;49.936;11.344;2023-05-24T10:13:14;97103.97;;;18.79;35.88
25855;BME280;13680;49.936;11.344;2023-05-24T10:15:42;97099.63;;;18.50;35.65
25855;BME280;13680;49.936;11.344;2023-05-24T10:18:08;97104.66;;;19.17;35.60
25855;BME280;13680;49.936;11.344;2023-05-24T10:20:33;97107.41;;;19.45;35.74
25855;BME280;13680;49.936;11.344;2023-05-24T10:23:02;97098.88;;;19.79;32.55
25855;BME280;13680;49.936;11.344;2023-05-24T10:25:32;97096.91;;;20.43;31.56
25855;BME280;13680;49.936;11.344;2023-05-24T10:28:00;97086.47;;;20.65;30.83
25855;BME280;13680;49.936;11.344;2023-05-24T10:30:34;97081.81;;;19.66;32.36
25855;BME280;13680;49.936;11.344;2023-05-24T10:33:03;97083.50;;;19.87;33.76
25855;BME280;13680;49.936;11.344;2023-05-24T10:35:31;97089.44;;;20.40;30.80
25855;BME280;13680;49.936;11.344;2023-05-24T10:37:58;97092.50;;;18.74;31.45
25855;BME280;13680;49.936;11.344;2023-05-24T10:40:24;97086.22;;;18.98;33.00
25855;BME280;13680;49.936;11.344;2023-05-24T10:42:51;97081.81;;;19.22;33.42
25855;BME280;13680;49.936;11.344;2023-05-24T10:45:35;97077.50;;;19.21;32.82
25855;BME280;13680;49.936;11.344;2023-05-24T10:48:57;97077.41;;;19.45;31.84
25855;BME280;13680;49.936;11.344;2023-05-24T10:50:52;97081.97;;;19.73;31.49
25855;BME280;13680;49.936;11.344;2023-05-24T10:53:20;97080.09;;;20.41;30.32
25855;BME280;13680;49.936;11.344;2023-05-24T10:55:54;97084.09;;;20.28;29.14
25855;BME280;13680;49.936;11.344;2023-05-24T10:58:26;97080.31;;;21.27;28.80
25855;BME280;13680;49.936;11.344;2023-05-24T11:00:51;97075.72;;;21.54;27.78
25855;BME280;13680;49.936;11.344;2023-05-24T11:03:18;97080.78;;;21.99;27.67
25855;BME280;13680;49.936;11.344;2023-05-24T11:08:14;97079.19;;;21.51;30.53
25855;BME280;13680;49.936;11.344;2023-05-24T11:10:45;97083.91;;;20.92;29.56
25855;BME280;13680;49.936;11.344;2023-05-24T11:13:10;97081.53;;;20.90;29.49
25855;BME280;13680;49.936;11.344;2023-05-24T11:15:36;97068.97;;;20.15;32.86
25855;BME280;13680;49.936;11.344;2023-05-24T11:20:41;97067.13;;;21.76;30.83
25855;BME280;13680;49.936;11.344;2023-05-24T11:23:08;97072.28;;;21.38;30.71
25855;BME280;13680;49.936;11.344;2023-05-24T11:25:34;97087.94;;;20.79;32.35
25855;BME280;13680;49.936;11.344;2023-05-24T11:28:02;97069.25;;;20.45;32.04
25855;BME280;13680;49.936;11.344;2023-05-24T11:30:29;97069.69;;;20.83;33.04
25855;BME280;13680;49.936;11.344;2023-05-24T11:32:57;97076.06;;;20.90;33.00
25855;BME280;13680;49.936;11.344;2023-05-24T11:35:25;97080.03;;;20.57;31.33
25855;BME280;13680;49.936;11.344;2023-05-24T11:37:52;97084.88;;;20.28;33.44
25855;BME280;13680;49.936;11.344;2023-05-24T11:40:18;97078.16;;;20.77;32.43
25855;BME280;13680;49.936;11.344;2023-05-24T11:42:44;97082.19;;;21.03;31.74
25855;BME280;13680;49.936;11.344;2023-05-24T11:45:11;97086.75;;;20.60;30.78
25855;BME280;13680;49.936;11.344;2023-05-24T11:47:38;97066.47;;;20.61;31.42
25855;BME280;13680;49.936;11.344;2023-05-24T11:50:05;97065.63;;;21.16;31.67
25855;BME280;13680;49.936;11.344;2023-05-24T11:52:31;97072.41;;;21.02;31.30
25855;BME280;13680;49.936;11.344;2023-05-24T11:54:56;97076.91;;;19.88;32.21
25855;BME280;13680;49.936;11.344;2023-05-24T11:57:43;97069.38;;;21.07;32.03
25855;BME280;13680;49.936;11.344;2023-05-24T12:00:13;97074.00;;;20.84;31.38
25855;BME280;13680;49.936;11.344;2023-05-24T12:02:41;97075.28;;;20.19;31.51
25855;BME280;13680;49.936;11.344;2023-05-24T12:05:07;97071.53;;;20.43;31.78
25855;BME280;13680;49.936;11.344;2023-05-24T12:07:33;97079.75;;;20.79;31.04
25855;BME280;13680;49.936;11.344;2023-05-24T12:10:00;97073.41;;;21.14;31.54
25855;BME280;13680;49.936;11.344;2023-05-24T12:12:26;97068.66;;;20.71;29.59
25855;BME280;13680;49.936;11.344;2023-05-24T12:14:54;97064.28;;;21.25;28.57
25855;BME280;13680;49.936;11.344;2023-05-24T12:17:20;97057.94;;;22.14;28.63
25855;BME280;13680;49.936;11.344;2023-05-24T12:19:47;97056.84;;;21.92;28.56
25855;BME280;13680;49.936;11.344;2023-05-24T12:22:13;97059.19;;;21.94;29.79
25855;BME280;13680;49.936;11.344;2023-05-24T12:24:39;97047.44;;;22.43;28.44
25855;BME280;13680;49.936;11.344;2023-05-24T12:27:05;97050.06;;;22.97;29.29
25855;BME280;13680;49.936;11.344;2023-05-24T12:29:38;97050.84;;;21.40;29.31
25855;BME280;13680;49.936;11.344;2023-05-24T12:32:05;97055.28;;;22.75;27.83
25855;BME280;13680;49.936;11.344;2023-05-24T12:34:35;97052.13;;;22.73;27.61
25855;BME280;13680;49.936;11.344;2023-05-24T12:37:01;97046.84;;;22.57;28.35
25855;BME280;13680;49.936;11.344;2023-05-24T12:39:27;97050.00;;;22.59;28.24
25855;BME280;13680;49.936;11.344;2023-05-24T12:41:56;97040.44;;;22.76;28.18
25855;BME280;13680;49.936;11.344;2023-05-24T12:44:27;97041.03;;;22.96;27.51
25855;BME280;13680;49.936;11.344;2023-05-24T12:46:53;97054.63;;;22.55;28.58
25855;BME280;13680;49.936;11.344;2023-05-24T12:49:20;97037.44;;;22.04;27.90
25855;BME280;13680;49.936;11.344;2023-05-24T12:51:45;97049.00;;;22.17;29.47
25855;BME280;13680;49.936;11.344;2023-05-24T12:54:10;97037.31;;;22.47;27.59
25855;BME280;13680;49.936;11.344;2023-05-24T12:56:36;97039.34;;;22.27;28.29
25855;BME280;13680;49.936;11.344;2023-05-24T12:59:02;97032.88;;;22.66;29.23
25855;BME280;13680;49.936;11.344;2023-05-24T13:01:29;97034.63;;;23.15;27.95
25855;BME280;13680;49.936;11.344;2023-05-24T13:03:54;97035.84;;;23.21;26.63
25855;BME280;13680;49.936;11.344;2023-05-24T13:06:19;97032.69;;;23.16;26.24